sensor_id;sensor_type;location;lat;lon;timestamp;temperature;humidity
15906;DHT22;8051;50.820;4.884;2023-01-15T00:01:21;7.20;99.90
15906;DHT22;8051;50.820;4.884;2023-01-15T00:03:50;7.20;99.90
15906;DHT22;8051;50.820;4.884;2023-01-15T00:06:20;7.20;99.90
15906;DHT22;8051;50.820;4.884;2023-01-15T00:08:48;7.20;99.90
15906;DHT22;8051;50.820;4.884;2023-01-15T00:11:16;7.20;99.90
15906;DHT22;8051;50.820;4.884;2023-01-15T00:13:44;7.20;99.90
15906;DHT22;8051;50.820;4.884;2023-01-15T00:16:14;7.20;99.90
15906;DHT22;8051;50.820;4.884;2023-01-15T00:18:42;7.10;99.90
15906;DHT22;8051;50.820;4.884;2023-01-15T00:21:11;7.10;99.90
15906;DHT22;8051;50.820;4.884;2023-01-15T00:23:40;7.00;99.90
15906;DHT22;8051;50.820;4.884;2023-01-15T00:26:27;7.00;99.90
15906;DHT22;8051;50.820;4.884;2023-01-15T00:29:13;7.10;99.90
15906;DHT22;8051;50.820;4.884;2023-01-15T00:31:41;7.10;99.90
15906;DHT22;8051;50.820;4.884;2023-01-15T00:34:09;7.10;99.90
15906;DHT22;8051;50.820;4.884;2023-01-15T00:36:37;7.10;99.90
15906;DHT22;8051;50.820;4.884;2023-01-15T00:39:06;7.00;99.90
15906;DHT22;8051;50.820;4.884;2023-01-15T00:41:33;7.00;99.90
15906;DHT22;8051;50.820;4.884;2023-01-15T00:44:01;7.00;99.90
15906;DHT22;8051;50.820;4.884;2023-01-15T00:46:29;7.00;99.90
15906;DHT22;8051;50.820;4.884;2023-01-15T00:48:56;7.00;99.90
15906;DHT22;8051;50.820;4.884;2023-01-15T00:51:24;7.00;99.90
15906;DHT22;8051;50.820;4.884;2023-01-15T00:53:51;7.00;99.90
15906;DHT22;8051;50.820;4.884;2023-01-15T00:56:20;7.10;99.90
15906;DHT22;8051;50.820;4.884;2023-01-15T00:58:47;7.00;99.90
15906;DHT22;8051;50.820;4.884;2023-01-15T01:01:15;7.00;99.90
15906;DHT22;8051;50.820;4.884;2023-01-15T01:03:43;7.10;99.90
15906;DHT22;8051;50.820;4.884;2023-01-15T01:06:13;7.10;99.90
15906;DHT22;8051;50.820;4.884;2023-01-15T01:08:42;7.10;99.90
15906;DHT22;8051;50.820;4.884;2023-01-15T01:11:12;7.10;99.90
15906;DHT22;8051;50.820;4.884;2023-01-15T01:13:42;7.10;99.90
15906;DHT22;8051;50.820;4.884;2023-01-15T01:16:26;7.10;99.90
15906;DHT22;8051;50.820;4.884;2023-01-15T01:18:55;7.10;99.90
15906;DHT22;8051;50.820;4.884;2023-01-15T01:21:24;7.10;99.90
15906;DHT22;8051;50.820;4.884;2023-01-15T01:23:51;7.20;99.90
15906;DHT22;8051;50.820;4.884;2023-01-15T01:26:19;7.10;99.90
15906;DHT22;8051;50.820;4.884;2023-01-15T01:28:52;7.10;99.90
15906;DHT22;8051;50.820;4.884;2023-01-15T01:31:20;7.20;99.90
15906;DHT22;8051;50.820;4.884;2023-01-15T01:33:49;7.20;99.90
15906;DHT22;8051;50.820;4.884;2023-01-15T01:36:16;7.20;99.90
15906;DHT22;8051;50.820;4.884;2023-01-15T01:38:46;7.20;99.90
15906;DHT22;8051;50.820;4.884;2023-01-15T01:41:14;7.20;99.90
15906;DHT22;8051;50.820;4.884;2023-01-15T01:43:55;7.20;99.90
15906;DHT22;8051;50.820;4.884;2023-01-15T01:46:23;7.20;99.90
15906;DHT22;8051;50.820;4.884;2023-01-15T01:48:53;7.20;99.90
15906;DHT22;8051;50.820;4.884;2023-01-15T01:51:24;7.20;99.90
15906;DHT22;8051;50.820;4.884;2023-01-15T01:53:52;7.20;99.90
15906;DHT22;8051;50.820;4.884;2023-01-15T01:56:19;7.20;99.90
15906;DHT22;8051;50.820;4.884;2023-01-15T01:58:51;7.20;99.90
15906;DHT22;8051;50.820;4.884;2023-01-15T02:01:22;7.20;99.90
15906;DHT22;8051;50.820;4.884;2023-01-15T02:03:52;7.20;99.90
15906;DHT22;8051;50.820;4.884;2023-01-15T02:06:21;7.20;99.90
15906;DHT22;8051;50.820;4.884;2023-01-15T02:08:48;7.20;99.90
15906;DHT22;8051;50.820;4.884;2023-01-15T02:11:19;7.10;99.90
15906;DHT22;8051;50.820;4.884;2023-01-15T02:13:54;7.10;99.90
15906;DHT22;8051;50.820;4.884;2023-01-15T02:16:30;7.10;99.90
15906;DHT22;8051;50.820;4.884;2023-01-15T02:19:08;7.10;99.90
15906;DHT22;8051;50.820;4.884;2023-01-15T02:21:48;7.10;99.90
15906;DHT22;8051;50.820;4.884;2023-01-15T02:24:22;7.10;99.90
15906;DHT22;8051;50.820;4.884;2023-01-15T02:27:12;7.10;99.90
15906;DHT22;8051;50.820;4.884;2023-01-15T02:29:47;7.00;99.90
15906;DHT22;8051;50.820;4.884;2023-01-15T02:32:19;7.00;99.90
15906;DHT22;8051;50.820;4.884;2023-01-15T02:34:54;7.10;99.90
15906;DHT22;8051;50.820;4.884;2023-01-15T02:37:25;7.00;99.90
15906;DHT22;8051;50.820;4.884;2023-01-15T02:39:55;7.00;99.90
15906;DHT22;8051;50.820;4.884;2023-01-15T02:42:27;7.00;99.90
15906;DHT22;8051;50.820;4.884;2023-01-15T02:44:58;7.00;99.90
15906;DHT22;8051;50.820;4.884;2023-01-15T02:47:29;7.00;99.90
15906;DHT22;8051;50.820;4.884;2023-01-15T02:50:01;7.00;99.90
15906;DHT22;8051;50.820;4.884;2023-01-15T02:52:35;7.00;99.90
15906;DHT22;8051;50.820;4.884;2023-01-15T02:55:07;6.90;99.90
15906;DHT22;8051;50.820;4.884;2023-01-15T02:57:40;6.90;99.90
15906;DHT22;8051;50.820;4.884;2023-01-15T03:00:12;6.90;99.90
15906;DHT22;8051;50.820;4.884;2023-01-15T03:02:43;6.90;99.90
15906;DHT22;8051;50.820;4.884;2023-01-15T03:05:16;6.90;99.90
15906;DHT22;8051;50.820;4.884;2023-01-15T03:07:47;6.80;99.90
15906;DHT22;8051;50.820;4.884;2023-01-15T03:10:16;6.80;99.90
15906;DHT22;8051;50.820;4.884;2023-01-15T03:12:48;6.80;99.90
15906;DHT22;8051;50.820;4.884;2023-01-15T03:15:39;6.80;99.90
15906;DHT22;8051;50.820;4.884;2023-01-15T03:18:28;6.70;99.90
15906;DHT22;8051;50.820;4.884;2023-01-15T03:21:01;6.70;99.90
15906;DHT22;8051;50.820;4.884;2023-01-15T03:23:37;6.70;99.90
15906;DHT22;8051;50.820;4.884;2023-01-15T03:26:06;6.70;99.90
15906;DHT22;8051;50.820;4.884;2023-01-15T03:28:36;6.60;99.90
15906;DHT22;8051;50.820;4.884;2023-01-15T03:31:05;6.70;99.90
15906;DHT22;8051;50.820;4.884;2023-01-15T03:33:33;6.60;99.90
15906;DHT22;8051;50.820;4.884;2023-01-15T03:36:01;6.60;99.90
15906;DHT22;8051;50.820;4.884;2023-01-15T03:38:30;6.60;99.90
15906;DHT22;8051;50.820;4.884;2023-01-15T03:41:06;6.70;99.90
15906;DHT22;8051;50.820;4.884;2023-01-15T03:43:49;6.70;99.90
15906;DHT22;8051;50.820;4.884;2023-01-15T03:46:39;6.70;99.90
15906;DHT22;8051;50.820;4.884;2023-01-15T03:49:17;6.70;99.90
15906;DHT22;8051;50.820;4.884;2023-01-15T03:51:50;6.60;99.90
15906;DHT22;8051;50.820;4.884;2023-01-15T03:54:25;6.60;99.90
15906;DHT22;8051;50.820;4.884;2023-01-15T03:56:56;6.60;99.90
15906;DHT22;8051;50.820;4.884;2023-01-15T03:59:30;6.60;99.90
15906;DHT22;8051;50.820;4.884;2023-01-15T04:02:01;6.60;99.90
15906;DHT22;8051;50.820;4.884;2023-01-15T04:04:30;6.50;99.90
15906;DHT22;8051;50.820;4.884;2023-01-15T04:06:58;6.50;99.90
15906;DHT22;8051;50.820;4.884;2023-01-15T04:09:27;6.50;99.90
15906;DHT22;8051;50.820;4.884;2023-01-15T04:11:58;6.50;99.90
15906;DHT22;8051;50.820;4.884;2023-01-15T04:14:28;6.50;99.90
15906;DHT22;8051;50.820;4.884;2023-01-15T04:16:56;6.50;99.90
15906;DHT22;8051;50.820;4.884;2023-01-15T04:19:23;6.50;99.90
15906;DHT22;8051;50.820;4.884;2023-01-15T04:21:51;6.50;99.90
15906;DHT22;8051;50.820;4.884;2023-01-15T04:24:18;6.40;99.90
15906;DHT22;8051;50.820;4.884;2023-01-15T04:26:45;6.40;99.90
15906;DHT22;8051;50.820;4.884;2023-01-15T04:29:13;6.40;99.90
15906;DHT22;8051;50.820;4.884;2023-01-15T04:31:41;6.40;99.90
15906;DHT22;8051;50.820;4.884;2023-01-15T04:34:09;6.40;99.90
15906;DHT22;8051;50.820;4.884;2023-01-15T04:36:36;6.40;99.90
15906;DHT22;8051;50.820;4.884;2023-01-15T04:39:04;6.40;99.90
15906;DHT22;8051;50.820;4.884;2023-01-15T04:41:32;6.40;99.90
15906;DHT22;8051;50.820;4.884;2023-01-15T04:44:16;6.40;99.90
15906;DHT22;8051;50.820;4.884;2023-01-15T04:46:45;6.40;99.90
15906;DHT22;8051;50.820;4.884;2023-01-15T04:49:15;6.40;99.90
15906;DHT22;8051;50.820;4.884;2023-01-15T04:51:43;6.30;99.90
15906;DHT22;8051;50.820;4.884;2023-01-15T04:54:12;6.30;99.90
15906;DHT22;8051;50.820;4.884;2023-01-15T04:56:41;6.30;99.90
15906;DHT22;8051;50.820;4.884;2023-01-15T04:59:09;6.30;99.90
15906;DHT22;8051;50.820;4.884;2023-01-15T05:01:37;6.30;99.90
15906;DHT22;8051;50.820;4.884;2023-01-15T05:04:07;6.30;99.90
15906;DHT22;8051;50.820;4.884;2023-01-15T05:06:34;6.30;99.90
15906;DHT22;8051;50.820;4.884;2023-01-15T05:09:03;6.30;99.90
15906;DHT22;8051;50.820;4.884;2023-01-15T05:11:33;6.30;99.90
15906;DHT22;8051;50.820;4.884;2023-01-15T05:14:01;6.30;99.90
15906;DHT22;8051;50.820;4.884;2023-01-15T05:16:29;6.30;99.90
15906;DHT22;8051;50.820;4.884;2023-01-15T05:18:58;6.30;99.90
15906;DHT22;8051;50.820;4.884;2023-01-15T05:21:30;6.30;99.90
15906;DHT22;8051;50.820;4.884;2023-01-15T05:23:59;6.30;99.90
15906;DHT22;8051;50.820;4.884;2023-01-15T05:26:27;6.20;99.90
15906;DHT22;8051;50.820;4.884;2023-01-15T05:28:57;6.20;99.90
15906;DHT22;8051;50.820;4.884;2023-01-15T05:31:25;6.20;99.90
15906;DHT22;8051;50.820;4.884;2023-01-15T05:33:54;6.20;99.90
15906;DHT22;8051;50.820;4.884;2023-01-15T05:36:23;6.20;99.90
15906;DHT22;8051;50.820;4.884;2023-01-15T05:38:52;6.20;99.90
15906;DHT22;8051;50.820;4.884;2023-01-15T05:41:22;6.10;99.90
15906;DHT22;8051;50.820;4.884;2023-01-15T05:44:09;6.10;99.90
15906;DHT22;8051;50.820;4.884;2023-01-15T05:46:38;6.10;99.90
15906;DHT22;8051;50.820;4.884;2023-01-15T05:49:07;6.10;99.90
15906;DHT22;8051;50.820;4.884;2023-01-15T05:51:35;6.10;99.90
15906;DHT22;8051;50.820;4.884;2023-01-15T05:54:06;6.00;99.90
15906;DHT22;8051;50.820;4.884;2023-01-15T05:56:34;6.00;99.90
15906;DHT22;8051;50.820;4.884;2023-01-15T05:59:02;6.00;99.90
15906;DHT22;8051;50.820;4.884;2023-01-15T06:01:30;6.00;99.90
15906;DHT22;8051;50.820;4.884;2023-01-15T06:03:57;6.00;99.90
15906;DHT22;8051;50.820;4.884;2023-01-15T06:06:25;6.00;99.90
15906;DHT22;8051;50.820;4.884;2023-01-15T06:08:53;5.90;99.90
15906;DHT22;8051;50.820;4.884;2023-01-15T06:11:22;6.00;99.90
15906;DHT22;8051;50.820;4.884;2023-01-15T06:13:50;5.90;99.90
15906;DHT22;8051;50.820;4.884;2023-01-15T06:16:17;6.00;99.90
15906;DHT22;8051;50.820;4.884;2023-01-15T06:18:45;6.00;99.90
15906;DHT22;8051;50.820;4.884;2023-01-15T06:21:13;6.00;99.90
15906;DHT22;8051;50.820;4.884;2023-01-15T06:23:41;6.00;99.90
15906;DHT22;8051;50.820;4.884;2023-01-15T06:26:11;6.00;99.90
15906;DHT22;8051;50.820;4.884;2023-01-15T06:28:40;5.70;99.90
15906;DHT22;8051;50.820;4.884;2023-01-15T06:31:10;5.60;99.90
15906;DHT22;8051;50.820;4.884;2023-01-15T06:33:38;5.30;99.90
15906;DHT22;8051;50.820;4.884;2023-01-15T06:36:06;5.20;99.90
15906;DHT22;8051;50.820;4.884;2023-01-15T06:38:34;5.00;99.90
15906;DHT22;8051;50.820;4.884;2023-01-15T06:41:03;4.90;99.90
15906;DHT22;8051;50.820;4.884;2023-01-15T06:43:52;4.50;99.90
15906;DHT22;8051;50.820;4.884;2023-01-15T06:46:44;4.20;99.90
15906;DHT22;8051;50.820;4.884;2023-01-15T06:49:29;4.30;99.90
15906;DHT22;8051;50.820;4.884;2023-01-15T06:51:56;4.30;99.90
15906;DHT22;8051;50.820;4.884;2023-01-15T06:54:24;4.40;99.90
15906;DHT22;8051;50.820;4.884;2023-01-15T06:56:52;4.40;99.90
15906;DHT22;8051;50.820;4.884;2023-01-15T06:59:21;4.50;99.90
15906;DHT22;8051;50.820;4.884;2023-01-15T07:01:48;4.50;99.90
15906;DHT22;8051;50.820;4.884;2023-01-15T07:04:16;4.60;99.90
15906;DHT22;8051;50.820;4.884;2023-01-15T07:06:43;4.70;99.90
15906;DHT22;8051;50.820;4.884;2023-01-15T07:09:11;4.70;99.90
15906;DHT22;8051;50.820;4.884;2023-01-15T07:11:39;4.80;99.90
15906;DHT22;8051;50.820;4.884;2023-01-15T07:14:15;4.90;99.90
15906;DHT22;8051;50.820;4.884;2023-01-15T07:16:44;4.90;99.90
15906;DHT22;8051;50.820;4.884;2023-01-15T07:19:12;4.90;99.90
15906;DHT22;8051;50.820;4.884;2023-01-15T07:21:40;4.90;99.90
15906;DHT22;8051;50.820;4.884;2023-01-15T07:24:08;5.00;99.90
15906;DHT22;8051;50.820;4.884;2023-01-15T07:26:36;5.00;99.90
15906;DHT22;8051;50.820;4.884;2023-01-15T07:29:03;5.00;99.90
15906;DHT22;8051;50.820;4.884;2023-01-15T07:31:31;5.00;99.90
15906;DHT22;8051;50.820;4.884;2023-01-15T07:34:00;5.00;99.90
15906;DHT22;8051;50.820;4.884;2023-01-15T07:36:27;5.00;99.90
15906;DHT22;8051;50.820;4.884;2023-01-15T07:38:55;4.90;99.90
15906;DHT22;8051;50.820;4.884;2023-01-15T07:41:22;4.90;99.90
15906;DHT22;8051;50.820;4.884;2023-01-15T07:44:08;4.80;99.90
15906;DHT22;8051;50.820;4.884;2023-01-15T07:46:54;4.80;99.90
15906;DHT22;8051;50.820;4.884;2023-01-15T07:49:41;4.70;99.90
15906;DHT22;8051;50.820;4.884;2023-01-15T07:52:14;4.80;99.90
15906;DHT22;8051;50.820;4.884;2023-01-15T07:54:42;4.80;99.90
15906;DHT22;8051;50.820;4.884;2023-01-15T07:57:10;4.80;99.90
15906;DHT22;8051;50.820;4.884;2023-01-15T07:59:38;4.80;99.90
15906;DHT22;8051;50.820;4.884;2023-01-15T08:02:06;4.70;99.90
15906;DHT22;8051;50.820;4.884;2023-01-15T08:04:34;4.70;99.90
15906;DHT22;8051;50.820;4.884;2023-01-15T08:07:04;4.60;99.90
15906;DHT22;8051;50.820;4.884;2023-01-15T08:09:31;4.60;99.90
15906;DHT22;8051;50.820;4.884;2023-01-15T08:11:59;4.70;99.90
15906;DHT22;8051;50.820;4.884;2023-01-15T08:14:45;4.70;99.90
15906;DHT22;8051;50.820;4.884;2023-01-15T08:17:30;4.80;99.90
15906;DHT22;8051;50.820;4.884;2023-01-15T08:19:59;4.80;99.90
15906;DHT22;8051;50.820;4.884;2023-01-15T08:22:28;4.80;99.90
15906;DHT22;8051;50.820;4.884;2023-01-15T08:24:56;4.80;99.90
15906;DHT22;8051;50.820;4.884;2023-01-15T08:27:24;4.80;99.90
15906;DHT22;8051;50.820;4.884;2023-01-15T08:29:52;4.80;99.90
15906;DHT22;8051;50.820;4.884;2023-01-15T08:32:19;4.80;99.90
15906;DHT22;8051;50.820;4.884;2023-01-15T08:34:47;4.80;99.90
15906;DHT22;8051;50.820;4.884;2023-01-15T08:37:14;4.80;99.90
15906;DHT22;8051;50.820;4.884;2023-01-15T08:39:43;4.80;99.90
15906;DHT22;8051;50.820;4.884;2023-01-15T08:42:11;4.90;99.90
15906;DHT22;8051;50.820;4.884;2023-01-15T08:44:38;4.90;99.90
15906;DHT22;8051;50.820;4.884;2023-01-15T08:47:06;5.00;99.90
15906;DHT22;8051;50.820;4.884;2023-01-15T08:49:33;5.00;99.90
15906;DHT22;8051;50.820;4.884;2023-01-15T08:52:01;5.10;99.90
15906;DHT22;8051;50.820;4.884;2023-01-15T08:54:29;5.20;99.90
15906;DHT22;8051;50.820;4.884;2023-01-15T08:56:58;5.20;99.90
15906;DHT22;8051;50.820;4.884;2023-01-15T08:59:26;5.20;99.90
15906;DHT22;8051;50.820;4.884;2023-01-15T09:01:53;5.20;99.90
15906;DHT22;8051;50.820;4.884;2023-01-15T09:04:21;5.20;99.90
15906;DHT22;8051;50.820;4.884;2023-01-15T09:06:49;5.30;99.90
15906;DHT22;8051;50.820;4.884;2023-01-15T09:09:16;5.30;99.90
15906;DHT22;8051;50.820;4.884;2023-01-15T09:11:44;5.30;99.90
15906;DHT22;8051;50.820;4.884;2023-01-15T09:14:14;5.30;99.90
15906;DHT22;8051;50.820;4.884;2023-01-15T09:16:41;5.30;99.90
15906;DHT22;8051;50.820;4.884;2023-01-15T09:19:09;5.30;99.90
15906;DHT22;8051;50.820;4.884;2023-01-15T09:21:37;5.40;99.90
15906;DHT22;8051;50.820;4.884;2023-01-15T09:24:05;5.40;99.90
15906;DHT22;8051;50.820;4.884;2023-01-15T09:26:34;5.40;99.90
15906;DHT22;8051;50.820;4.884;2023-01-15T09:29:02;5.50;99.90
15906;DHT22;8051;50.820;4.884;2023-01-15T09:31:32;5.50;99.90
15906;DHT22;8051;50.820;4.884;2023-01-15T09:34:00;5.50;99.90
15906;DHT22;8051;50.820;4.884;2023-01-15T09:36:28;5.50;99.90
15906;DHT22;8051;50.820;4.884;2023-01-15T09:38:57;5.60;99.90
15906;DHT22;8051;50.820;4.884;2023-01-15T09:41:25;5.60;99.90
15906;DHT22;8051;50.820;4.884;2023-01-15T09:44:26;5.60;99.90
15906;DHT22;8051;50.820;4.884;2023-01-15T09:47:05;5.60;99.90
15906;DHT22;8051;50.820;4.884;2023-01-15T09:49:45;5.70;99.90
15906;DHT22;8051;50.820;4.884;2023-01-15T09:52:24;5.70;99.90
15906;DHT22;8051;50.820;4.884;2023-01-15T09:54:58;5.80;99.90
15906;DHT22;8051;50.820;4.884;2023-01-15T09:57:27;5.90;99.90
15906;DHT22;8051;50.820;4.884;2023-01-15T09:59:56;6.00;99.90
15906;DHT22;8051;50.820;4.884;2023-01-15T10:02:34;6.00;99.90
15906;DHT22;8051;50.820;4.884;2023-01-15T10:05:08;6.10;99.90
15906;DHT22;8051;50.820;4.884;2023-01-15T10:07:42;6.20;99.90
15906;DHT22;8051;50.820;4.884;2023-01-15T10:10:15;6.10;99.90
15906;DHT22;8051;50.820;4.884;2023-01-15T10:12:44;6.00;99.90
15906;DHT22;8051;50.820;4.884;2023-01-15T10:15:23;5.90;99.90
15906;DHT22;8051;50.820;4.884;2023-01-15T10:17:54;5.90;99.90
15906;DHT22;8051;50.820;4.884;2023-01-15T10:20:46;5.90;99.90
15906;DHT22;8051;50.820;4.884;2023-01-15T10:23:33;5.90;99.90
15906;DHT22;8051;50.820;4.884;2023-01-15T10:26:14;6.00;99.90
15906;DHT22;8051;50.820;4.884;2023-01-15T10:28:57;5.90;99.90
15906;DHT22;8051;50.820;4.884;2023-01-15T10:31:36;5.90;99.90
15906;DHT22;8051;50.820;4.884;2023-01-15T10:34:33;5.90;99.90
15906;DHT22;8051;50.820;4.884;2023-01-15T10:37:10;5.90;99.90
15906;DHT22;8051;50.820;4.884;2023-01-15T10:39:44;6.00;99.90
15906;DHT22;8051;50.820;4.884;2023-01-15T10:42:24;6.00;99.90
15906;DHT22;8051;50.820;4.884;2023-01-15T10:45:00;6.00;99.90
15906;DHT22;8051;50.820;4.884;2023-01-15T10:47:32;6.00;99.90
15906;DHT22;8051;50.820;4.884;2023-01-15T10:50:11;6.00;99.90
15906;DHT22;8051;50.820;4.884;2023-01-15T10:52:41;5.90;99.90
15906;DHT22;8051;50.820;4.884;2023-01-15T10:55:20;5.80;99.90
15906;DHT22;8051;50.820;4.884;2023-01-15T10:57:54;5.70;99.90
15906;DHT22;8051;50.820;4.884;2023-01-15T11:00:25;5.50;99.90
15906;DHT22;8051;50.820;4.884;2023-01-15T11:02:59;5.60;99.90
15906;DHT22;8051;50.820;4.884;2023-01-15T11:05:31;5.70;99.90
15906;DHT22;8051;50.820;4.884;2023-01-15T11:08:00;5.80;99.90
15906;DHT22;8051;50.820;4.884;2023-01-15T11:10:29;5.90;99.90
15906;DHT22;8051;50.820;4.884;2023-01-15T11:12:59;5.90;99.90
15906;DHT22;8051;50.820;4.884;2023-01-15T11:15:46;6.00;99.90
15906;DHT22;8051;50.820;4.884;2023-01-15T11:18:34;6.10;99.90
15906;DHT22;8051;50.820;4.884;2023-01-15T11:21:22;6.20;99.90
15906;DHT22;8051;50.820;4.884;2023-01-15T11:23:50;6.30;99.90
15906;DHT22;8051;50.820;4.884;2023-01-15T11:26:21;6.40;99.90
15906;DHT22;8051;50.820;4.884;2023-01-15T11:28:49;6.60;99.90
15906;DHT22;8051;50.820;4.884;2023-01-15T11:31:19;6.80;99.90
15906;DHT22;8051;50.820;4.884;2023-01-15T11:33:57;6.80;99.90
15906;DHT22;8051;50.820;4.884;2023-01-15T11:36:28;6.80;99.90
15906;DHT22;8051;50.820;4.884;2023-01-15T11:38:56;6.80;99.90
15906;DHT22;8051;50.820;4.884;2023-01-15T11:41:28;6.90;99.90
15906;DHT22;8051;50.820;4.884;2023-01-15T11:44:17;6.90;99.90
15906;DHT22;8051;50.820;4.884;2023-01-15T11:47:02;6.70;99.90
15906;DHT22;8051;50.820;4.884;2023-01-15T11:49:51;6.60;99.90
15906;DHT22;8051;50.820;4.884;2023-01-15T11:52:41;6.60;99.90
15906;DHT22;8051;50.820;4.884;2023-01-15T11:55:11;6.60;99.90
15906;DHT22;8051;50.820;4.884;2023-01-15T11:57:40;6.70;99.90
15906;DHT22;8051;50.820;4.884;2023-01-15T12:00:19;6.80;99.90
15906;DHT22;8051;50.820;4.884;2023-01-15T12:02:49;6.80;99.90
15906;DHT22;8051;50.820;4.884;2023-01-15T12:05:20;7.00;99.90
15906;DHT22;8051;50.820;4.884;2023-01-15T12:07:51;7.30;99.90
15906;DHT22;8051;50.820;4.884;2023-01-15T12:10:21;7.30;99.90
15906;DHT22;8051;50.820;4.884;2023-01-15T12:13:25;7.30;99.90
15906;DHT22;8051;50.820;4.884;2023-01-15T12:16:00;7.40;99.90
15906;DHT22;8051;50.820;4.884;2023-01-15T12:18:53;7.30;99.90
15906;DHT22;8051;50.820;4.884;2023-01-15T12:21:48;7.30;99.90
15906;DHT22;8051;50.820;4.884;2023-01-15T12:24:40;7.30;99.90
15906;DHT22;8051;50.820;4.884;2023-01-15T12:27:22;7.20;99.90
15906;DHT22;8051;50.820;4.884;2023-01-15T12:29:59;7.00;99.90
15906;DHT22;8051;50.820;4.884;2023-01-15T12:32:32;7.00;99.90
15906;DHT22;8051;50.820;4.884;2023-01-15T12:35:04;7.00;99.90
15906;DHT22;8051;50.820;4.884;2023-01-15T12:37:37;7.00;99.90
15906;DHT22;8051;50.820;4.884;2023-01-15T12:40:18;6.90;99.90
15906;DHT22;8051;50.820;4.884;2023-01-15T12:42:49;6.90;99.90
15906;DHT22;8051;50.820;4.884;2023-01-15T12:45:37;7.00;99.90
15906;DHT22;8051;50.820;4.884;2023-01-15T12:48:12;6.90;99.90
15906;DHT22;8051;50.820;4.884;2023-01-15T12:50:45;6.90;99.90
15906;DHT22;8051;50.820;4.884;2023-01-15T12:53:16;6.90;99.90
15906;DHT22;8051;50.820;4.884;2023-01-15T12:55:50;7.00;99.90
15906;DHT22;8051;50.820;4.884;2023-01-15T12:58:32;7.10;99.90
15906;DHT22;8051;50.820;4.884;2023-01-15T13:01:07;7.10;99.90
15906;DHT22;8051;50.820;4.884;2023-01-15T13:03:48;7.00;99.90
15906;DHT22;8051;50.820;4.884;2023-01-15T13:06:18;7.00;99.90
15906;DHT22;8051;50.820;4.884;2023-01-15T13:08:55;7.10;99.90
15906;DHT22;8051;50.820;4.884;2023-01-15T13:11:25;7.10;99.90
15906;DHT22;8051;50.820;4.884;2023-01-15T13:13:52;7.00;99.90
15906;DHT22;8051;50.820;4.884;2023-01-15T13:16:39;7.00;99.90
15906;DHT22;8051;50.820;4.884;2023-01-15T13:19:35;7.10;99.90
15906;DHT22;8051;50.820;4.884;2023-01-15T13:22:08;7.10;99.90
15906;DHT22;8051;50.820;4.884;2023-01-15T13:24:54;7.20;99.90
15906;DHT22;8051;50.820;4.884;2023-01-15T13:27:39;7.20;99.90
15906;DHT22;8051;50.820;4.884;2023-01-15T13:30:30;7.20;99.90
15906;DHT22;8051;50.820;4.884;2023-01-15T13:33:11;7.20;99.90
15906;DHT22;8051;50.820;4.884;2023-01-15T13:35:45;7.10;99.90
15906;DHT22;8051;50.820;4.884;2023-01-15T13:38:17;7.00;99.90
15906;DHT22;8051;50.820;4.884;2023-01-15T13:40:48;7.00;99.90
15906;DHT22;8051;50.820;4.884;2023-01-15T13:43:40;6.90;99.90
15906;DHT22;8051;50.820;4.884;2023-01-15T13:46:10;6.90;99.90
15906;DHT22;8051;50.820;4.884;2023-01-15T13:48:42;6.80;99.90
15906;DHT22;8051;50.820;4.884;2023-01-15T13:51:24;6.80;99.90
15906;DHT22;8051;50.820;4.884;2023-01-15T13:53:53;6.80;99.90
15906;DHT22;8051;50.820;4.884;2023-01-15T13:56:28;6.80;99.90
15906;DHT22;8051;50.820;4.884;2023-01-15T13:58:58;6.80;99.90
15906;DHT22;8051;50.820;4.884;2023-01-15T14:01:32;6.90;99.90
15906;DHT22;8051;50.820;4.884;2023-01-15T14:04:02;6.90;99.90
15906;DHT22;8051;50.820;4.884;2023-01-15T14:06:38;6.90;99.90
15906;DHT22;8051;50.820;4.884;2023-01-15T14:09:09;6.90;99.90
15906;DHT22;8051;50.820;4.884;2023-01-15T14:11:40;7.00;99.90
15906;DHT22;8051;50.820;4.884;2023-01-15T14:14:42;6.90;99.90
15906;DHT22;8051;50.820;4.884;2023-01-15T14:17:25;6.90;99.90
15906;DHT22;8051;50.820;4.884;2023-01-15T14:20:14;6.80;99.90
15906;DHT22;8051;50.820;4.884;2023-01-15T14:22:53;6.70;99.90
15906;DHT22;8051;50.820;4.884;2023-01-15T14:25:39;6.70;99.90
15906;DHT22;8051;50.820;4.884;2023-01-15T14:28:36;6.60;99.90
15906;DHT22;8051;50.820;4.884;2023-01-15T14:31:28;6.50;99.90
15906;DHT22;8051;50.820;4.884;2023-01-15T14:34:12;6.20;99.90
15906;DHT22;8051;50.820;4.884;2023-01-15T14:36:48;6.10;99.90
15906;DHT22;8051;50.820;4.884;2023-01-15T14:39:32;6.00;99.90
15906;DHT22;8051;50.820;4.884;2023-01-15T14:42:06;5.90;99.90
15906;DHT22;8051;50.820;4.884;2023-01-15T14:44:59;5.90;99.90
15906;DHT22;8051;50.820;4.884;2023-01-15T14:47:33;6.00;99.90
15906;DHT22;8051;50.820;4.884;2023-01-15T14:50:20;6.00;99.90
15906;DHT22;8051;50.820;4.884;2023-01-15T14:52:50;6.00;99.90
15906;DHT22;8051;50.820;4.884;2023-01-15T14:55:19;6.10;99.90
15906;DHT22;8051;50.820;4.884;2023-01-15T14:57:54;6.20;99.90
15906;DHT22;8051;50.820;4.884;2023-01-15T15:00:28;6.30;99.90
15906;DHT22;8051;50.820;4.884;2023-01-15T15:02:59;6.30;99.90
15906;DHT22;8051;50.820;4.884;2023-01-15T15:05:29;6.30;99.90
15906;DHT22;8051;50.820;4.884;2023-01-15T15:07:58;6.30;99.90
15906;DHT22;8051;50.820;4.884;2023-01-15T15:10:34;6.30;99.90
15906;DHT22;8051;50.820;4.884;2023-01-15T15:13:11;6.30;99.90
15906;DHT22;8051;50.820;4.884;2023-01-15T15:15:47;6.30;99.90
15906;DHT22;8051;50.820;4.884;2023-01-15T15:18:26;6.30;99.90
15906;DHT22;8051;50.820;4.884;2023-01-15T15:21:01;6.30;99.90
15906;DHT22;8051;50.820;4.884;2023-01-15T15:23:36;6.40;99.90
15906;DHT22;8051;50.820;4.884;2023-01-15T15:26:16;6.40;99.90
15906;DHT22;8051;50.820;4.884;2023-01-15T15:28:55;6.40;99.90
15906;DHT22;8051;50.820;4.884;2023-01-15T15:31:22;6.40;99.90
15906;DHT22;8051;50.820;4.884;2023-01-15T15:33:54;6.40;99.90
15906;DHT22;8051;50.820;4.884;2023-01-15T15:36:24;6.30;99.90
15906;DHT22;8051;50.820;4.884;2023-01-15T15:38:53;6.20;99.90
15906;DHT22;8051;50.820;4.884;2023-01-15T15:41:23;6.20;99.90
15906;DHT22;8051;50.820;4.884;2023-01-15T15:44:13;6.20;99.90
15906;DHT22;8051;50.820;4.884;2023-01-15T15:47:14;6.10;99.90
15906;DHT22;8051;50.820;4.884;2023-01-15T15:50:02;6.10;99.90
15906;DHT22;8051;50.820;4.884;2023-01-15T15:52:29;6.00;99.90
15906;DHT22;8051;50.820;4.884;2023-01-15T15:54:57;6.00;99.90
15906;DHT22;8051;50.820;4.884;2023-01-15T15:57:27;6.00;99.90
15906;DHT22;8051;50.820;4.884;2023-01-15T15:59:56;6.00;99.90
15906;DHT22;8051;50.820;4.884;2023-01-15T16:02:27;6.00;99.90
15906;DHT22;8051;50.820;4.884;2023-01-15T16:05:03;6.00;99.90
15906;DHT22;8051;50.820;4.884;2023-01-15T16:07:32;6.00;99.90
15906;DHT22;8051;50.820;4.884;2023-01-15T16:10:06;5.90;99.90
15906;DHT22;8051;50.820;4.884;2023-01-15T16:12:43;5.90;99.90
15906;DHT22;8051;50.820;4.884;2023-01-15T16:15:15;5.80;99.90
15906;DHT22;8051;50.820;4.884;2023-01-15T16:17:43;5.80;99.90
15906;DHT22;8051;50.820;4.884;2023-01-15T16:20:15;5.90;99.90
15906;DHT22;8051;50.820;4.884;2023-01-15T16:22:55;5.90;99.90
15906;DHT22;8051;50.820;4.884;2023-01-15T16:25:24;5.90;99.90
15906;DHT22;8051;50.820;4.884;2023-01-15T16:27:52;5.90;99.90
15906;DHT22;8051;50.820;4.884;2023-01-15T16:30:20;6.00;99.90
15906;DHT22;8051;50.820;4.884;2023-01-15T16:32:49;6.00;99.90
15906;DHT22;8051;50.820;4.884;2023-01-15T16:35:20;5.90;99.90
15906;DHT22;8051;50.820;4.884;2023-01-15T16:37:49;5.90;99.90
15906;DHT22;8051;50.820;4.884;2023-01-15T16:40:24;5.90;99.90